Time;durP1;ratioP1;P1;durP2;ratioP2;P2;SDS_P1;SDS_P2;PMS_P1;PMS_P2;Temp;Humidity;BMP_temperature;BMP_pressure;BME280_temperature;BME280_humidity;BME280_pressure;Samples;Min_cycle;Max_cycle;Signal;HPM_P1;HPM_P2
2022/05/19 00:00:35;;;;;;;;;;;13.90;99.90;;;;;;5103037;28;19951;-64
2022/05/19 00:03:01;;;;;;;;;;;13.80;99.90;;;;;;5101831;28;19966;-64
2022/05/19 00:05:26;;;;;;;;;;;13.90;99.90;;;;;;5096533;28;19951;-65
2022/05/19 00:07:52;;;;;;;;;;;13.90;99.90;;;;;;5103865;28;19939;-63
2022/05/19 00:10:18;;;;;;;;;;;13.90;99.90;;;;;;5105063;28;19963;-64
2022/05/19 00:12:44;;;;;;;;;;;14.00;99.90;;;;;;5103961;28;19916;-63
2022/05/19 00:15:11;;;;;;;;;;;13.80;99.90;;;;;;5104085;28;19956;-64
2022/05/19 00:17:36;;;;;;;;;;;13.90;99.90;;;;;;5089087;28;19928;-64
2022/05/19 00:20:02;;;;;;;;;;;13.80;99.90;;;;;;5100279;28;19912;-64
2022/05/19 00:22:27;;;;;;;;;;;13.60;99.90;;;;;;5108443;28;19912;-64
2022/05/19 00:24:53;;;;;;;;;;;13.60;99.90;;;;;;5084734;28;19913;-64
2022/05/19 00:27:18;;;;;;;;;;;13.60;99.90;;;;;;5096679;28;20002;-63
2022/05/19 00:29:44;;;;;;;;;;;13.70;99.90;;;;;;5104947;28;19931;-63
2022/05/19 00:32:10;;;;;;;;;;;13.80;99.90;;;;;;5107958;28;19919;-64
2022/05/19 00:34:35;;;;;;;;;;;13.90;99.90;;;;;;5087542;28;19912;-64
2022/05/19 00:37:02;;;;;;;;;;;13.90;99.90;;;;;;5098252;28;19919;-64
2022/05/19 00:39:28;;;;;;;;;;;14.00;99.90;;;;;;5107238;28;19911;-63
2022/05/19 00:44:38;;;;;;;;;;;13.90;99.90;;;;;;5107892;28;19918;-64
2022/05/19 00:47:05;;;;;;;;;;;13.80;99.90;;;;;;5105137;28;19911;-64
2022/05/19 00:49:37;;;;;;;;;;;13.70;99.90;;;;;;5107576;28;20056;-63
2022/05/19 00:52:05;;;;;;;;;;;13.70;99.90;;;;;;5111662;28;19990;-64
2022/05/19 00:54:35;;;;;;;;;;;13.70;99.90;;;;;;5109574;28;19927;-64
2022/05/19 00:57:05;;;;;;;;;;;13.70;99.90;;;;;;5102987;28;19935;-64
2022/05/19 00:59:30;;;;;;;;;;;13.60;99.90;;;;;;5104751;28;19911;-63
2022/05/19 01:01:56;;;;;;;;;;;13.60;99.90;;;;;;5105270;28;20297;-63
2022/05/19 01:04:44;;;;;;;;;;;13.60;99.90;;;;;;5105615;28;19912;-63
2022/05/19 01:07:12;;;;;;;;;;;13.50;99.90;;;;;;5100183;28;19966;-63
2022/05/19 01:09:38;;;;;;;;;;;13.50;99.90;;;;;;5110104;28;20242;-63
2022/05/19 01:12:05;;;;;;;;;;;13.40;99.90;;;;;;5101208;28;19916;-62
2022/05/19 01:14:31;;;;;;;;;;;13.50;99.90;;;;;;5100209;28;20366;-64
2022/05/19 01:16:57;;;;;;;;;;;13.50;99.90;;;;;;5091912;28;19919;-64
2022/05/19 01:19:31;;;;;;;;;;;13.50;99.90;;;;;;5093548;28;19916;-64
2022/05/19 01:22:04;;;;;;;;;;;13.50;99.90;;;;;;5111566;28;19912;-62
2022/05/19 01:24:33;;;;;;;;;;;13.50;99.90;;;;;;5107675;28;19940;-64
2022/05/19 01:26:58;;;;;;;;;;;13.50;99.90;;;;;;5104384;28;19919;-63
2022/05/19 01:29:25;;;;;;;;;;;13.50;99.90;;;;;;5082936;28;19919;-64
2022/05/19 01:31:55;;;;;;;;;;;13.60;99.90;;;;;;5104061;28;19924;-64
2022/05/19 01:34:22;;;;;;;;;;;13.60;99.90;;;;;;5105279;28;20061;-64
2022/05/19 01:36:48;;;;;;;;;;;13.50;99.90;;;;;;5103921;28;19912;-63
2022/05/19 01:39:16;;;;;;;;;;;13.50;99.90;;;;;;5103489;28;19964;-64
2022/05/19 01:42:00;;;;;;;;;;;13.50;99.90;;;;;;5088532;28;20004;-64
2022/05/19 01:44:26;;;;;;;;;;;13.60;99.90;;;;;;5099660;28;20015;-64
2022/05/19 01:46:55;;;;;;;;;;;13.60;99.90;;;;;;5104416;28;20006;-65
2022/05/19 01:49:36;;;;;;;;;;;13.60;99.90;;;;;;5081080;28;19912;-64
2022/05/19 01:52:07;;;;;;;;;;;13.70;99.90;;;;;;5108562;28;20681;-64
2022/05/19 01:54:43;;;;;;;;;;;13.70;99.90;;;;;;5103533;28;19916;-64
2022/05/19 01:57:21;;;;;;;;;;;13.80;99.90;;;;;;5106780;28;19965;-65
2022/05/19 02:00:07;;;;;;;;;;;13.80;99.90;;;;;;5083041;28;19912;-64
2022/05/19 02:02:33;;;;;;;;;;;13.80;99.90;;;;;;5090257;28;19912;-64
2022/05/19 02:05:02;;;;;;;;;;;13.70;99.90;;;;;;5080813;28;19965;-64
2022/05/19 02:07:28;;;;;;;;;;;13.70;99.90;;;;;;5101555;28;20329;-64
2022/05/19 02:10:03;;;;;;;;;;;13.60;99.90;;;;;;5105800;28;19926;-64
2022/05/19 02:12:31;;;;;;;;;;;13.60;99.90;;;;;;5108335;28;20415;-63
2022/05/19 02:14:59;;;;;;;;;;;13.60;99.90;;;;;;5099241;28;19912;-64
2022/05/19 02:17:25;;;;;;;;;;;13.70;99.90;;;;;;5094265;28;20281;-62
2022/05/19 02:19:56;;;;;;;;;;;13.60;99.90;;;;;;5099032;28;19916;-65
2022/05/19 02:22:23;;;;;;;;;;;13.50;99.90;;;;;;5108407;28;19919;-64
2022/05/19 02:24:54;;;;;;;;;;;13.50;99.90;;;;;;5101207;28;19919;-64
2022/05/19 02:27:31;;;;;;;;;;;13.40;99.90;;;;;;5096006;28;20349;-64
2022/05/19 02:29:57;;;;;;;;;;;13.50;99.90;;;;;;5101973;28;19929;-64
2022/05/19 02:32:22;;;;;;;;;;;13.50;99.90;;;;;;5101841;28;20043;-63
2022/05/19 02:34:48;;;;;;;;;;;13.60;99.90;;;;;;5105486;28;19912;-64
2022/05/19 02:37:13;;;;;;;;;;;13.50;99.90;;;;;;5102384;28;19911;-64
2022/05/19 02:39:39;;;;;;;;;;;13.60;99.90;;;;;;5097657;28;19912;-64
2022/05/19 02:42:05;;;;;;;;;;;13.60;99.90;;;;;;5098335;28;20041;-63
2022/05/19 02:44:31;;;;;;;;;;;13.60;99.90;;;;;;5101096;28;19994;-64
2022/05/19 02:46:56;;;;;;;;;;;13.60;99.90;;;;;;5101830;28;19912;-64
2022/05/19 02:49:22;;;;;;;;;;;13.60;99.90;;;;;;5104128;28;20000;-64
2022/05/19 02:51:48;;;;;;;;;;;13.60;99.90;;;;;;5102422;28;19919;-64
2022/05/19 02:54:13;;;;;;;;;;;13.60;99.90;;;;;;5101460;28;19926;-64
2022/05/19 02:56:39;;;;;;;;;;;13.50;99.90;;;;;;5086349;28;19912;-63
2022/05/19 02:59:04;;;;;;;;;;;13.50;99.90;;;;;;5102061;28;20996;-64
2022/05/19 03:01:30;;;;;;;;;;;13.50;99.90;;;;;;5106048;28;20377;-63
2022/05/19 03:03:55;;;;;;;;;;;13.50;99.90;;;;;;5081029;28;19912;-64
2022/05/19 03:06:21;;;;;;;;;;;13.40;99.90;;;;;;5102275;28;20188;-64
2022/05/19 03:08:46;;;;;;;;;;;13.40;99.90;;;;;;5082892;28;19923;-63
2022/05/19 03:11:12;;;;;;;;;;;13.40;99.90;;;;;;5102310;28;19923;-63
2022/05/19 03:13:37;;;;;;;;;;;13.40;99.90;;;;;;5098476;28;20318;-64
2022/05/19 03:16:07;;;;;;;;;;;13.20;99.90;;;;;;5092598;28;19919;-64
2022/05/19 03:18:33;;;;;;;;;;;13.20;99.90;;;;;;5098919;28;20283;-63
2022/05/19 03:20:58;;;;;;;;;;;13.30;99.90;;;;;;5091148;28;19912;-63
2022/05/19 03:23:24;;;;;;;;;;;13.30;99.90;;;;;;5097235;28;19938;-63
2022/05/19 03:25:49;;;;;;;;;;;13.20;99.90;;;;;;5092685;28;19919;-63
2022/05/19 03:28:15;;;;;;;;;;;13.20;99.90;;;;;;5108517;28;19912;-63
2022/05/19 03:30:41;;;;;;;;;;;13.00;99.90;;;;;;5103119;28;19968;-64
2022/05/19 03:33:07;;;;;;;;;;;13.00;99.90;;;;;;5084483;28;19912;-64
2022/05/19 03:35:33;;;;;;;;;;;12.80;99.90;;;;;;5100261;28;19998;-64
2022/05/19 03:37:59;;;;;;;;;;;12.80;99.90;;;;;;5100767;28;20357;-64
2022/05/19 03:40:25;;;;;;;;;;;12.80;99.90;;;;;;5080345;28;19938;-64
2022/05/19 03:42:50;;;;;;;;;;;12.80;99.90;;;;;;5105614;28;19923;-64
2022/05/19 03:45:16;;;;;;;;;;;12.80;99.90;;;;;;5103595;28;20376;-64
2022/05/19 03:47:41;;;;;;;;;;;12.70;99.90;;;;;;5104070;28;19950;-64
2022/05/19 03:50:07;;;;;;;;;;;12.60;99.90;;;;;;5102436;28;20119;-64
2022/05/19 03:52:35;;;;;;;;;;;12.50;99.90;;;;;;5104605;28;19912;-64
2022/05/19 03:55:00;;;;;;;;;;;12.50;99.90;;;;;;5102209;28;19916;-64
2022/05/19 03:57:26;;;;;;;;;;;12.50;99.90;;;;;;5104602;28;19923;-64
2022/05/19 03:59:52;;;;;;;;;;;12.50;99.90;;;;;;5096100;28;19924;-64
2022/05/19 04:02:17;;;;;;;;;;;12.50;99.90;;;;;;5093618;28;19967;-65
2022/05/19 04:04:43;;;;;;;;;;;12.60;99.90;;;;;;5102070;28;20305;-64
2022/05/19 04:07:08;;;;;;;;;;;12.80;99.90;;;;;;5100928;28;20383;-63
2022/05/19 04:09:34;;;;;;;;;;;12.60;99.90;;;;;;5098727;28;19923;-64
2022/05/19 04:12:00;;;;;;;;;;;12.50;99.90;;;;;;5101745;28;19916;-64
2022/05/19 04:14:27;;;;;;;;;;;12.50;99.90;;;;;;5096300;28;19912;-64
2022/05/19 04:16:53;;;;;;;;;;;12.60;99.90;;;;;;5108041;28;20019;-64
2022/05/19 04:19:19;;;;;;;;;;;12.70;99.90;;;;;;5086414;28;20544;-64
2022/05/19 04:21:45;;;;;;;;;;;12.60;99.90;;;;;;5097407;28;19912;-64
2022/05/19 04:24:11;;;;;;;;;;;12.60;99.90;;;;;;5088610;28;19966;-65
2022/05/19 04:26:36;;;;;;;;;;;12.70;99.90;;;;;;5106704;28;20245;-64
2022/05/19 04:29:05;;;;;;;;;;;12.80;99.90;;;;;;5107577;28;20353;-64
2022/05/19 04:31:31;;;;;;;;;;;12.80;99.90;;;;;;5103290;28;19955;-64
2022/05/19 04:33:57;;;;;;;;;;;12.80;99.90;;;;;;5095346;28;19951;-64
2022/05/19 04:36:22;;;;;;;;;;;12.80;99.90;;;;;;5105710;28;20342;-64
2022/05/19 04:38:48;;;;;;;;;;;12.90;99.90;;;;;;5109174;28;19919;-64
2022/05/19 04:41:13;;;;;;;;;;;12.90;99.90;;;;;;5102177;28;19918;-64
2022/05/19 04:43:39;;;;;;;;;;;13.00;99.90;;;;;;5101527;28;19912;-64
2022/05/19 04:46:04;;;;;;;;;;;12.90;99.90;;;;;;5103484;28;20015;-66
2022/05/19 04:48:30;;;;;;;;;;;12.90;99.90;;;;;;5107570;28;19991;-64
2022/05/19 04:50:57;;;;;;;;;;;12.90;99.90;;;;;;5098176;28;20374;-64
2022/05/19 04:53:23;;;;;;;;;;;12.90;99.90;;;;;;5107618;28;19922;-64
2022/05/19 04:55:49;;;;;;;;;;;12.70;99.90;;;;;;5088426;28;20398;-65
2022/05/19 04:58:15;;;;;;;;;;;12.80;99.90;;;;;;5079714;28;19977;-64
2022/05/19 05:00:40;;;;;;;;;;;12.70;99.90;;;;;;5084975;28;19912;-64
2022/05/19 05:03:06;;;;;;;;;;;12.80;99.90;;;;;;5109481;28;19916;-64
2022/05/19 05:05:32;;;;;;;;;;;12.90;99.90;;;;;;5110742;28;20285;-65
2022/05/19 05:07:58;;;;;;;;;;;13.00;99.90;;;;;;5104882;28;19912;-64
2022/05/19 05:10:23;;;;;;;;;;;13.00;99.90;;;;;;5101782;28;20332;-64
2022/05/19 05:12:49;;;;;;;;;;;13.00;99.90;;;;;;5105782;28;20270;-64
2022/05/19 05:15:14;;;;;;;;;;;13.00;99.90;;;;;;5110801;28;20010;-65
2022/05/19 05:17:40;;;;;;;;;;;13.00;99.90;;;;;;5089803;28;19920;-64
2022/05/19 05:20:06;;;;;;;;;;;13.20;99.90;;;;;;5110291;28;19911;-64
2022/05/19 05:22:34;;;;;;;;;;;13.30;99.90;;;;;;5094766;28;19912;-66
2022/05/19 05:25:00;;;;;;;;;;;13.40;99.90;;;;;;5102254;28;19919;-65
2022/05/19 05:27:26;;;;;;;;;;;13.50;99.90;;;;;;5101281;28;19911;-64
2022/05/19 05:29:52;;;;;;;;;;;13.60;99.90;;;;;;5103254;28;19927;-66
2022/05/19 05:32:17;;;;;;;;;;;13.70;99.90;;;;;;5108232;28;19912;-65
2022/05/19 05:34:43;;;;;;;;;;;13.60;99.90;;;;;;5103683;28;19912;-64
2022/05/19 05:37:09;;;;;;;;;;;13.70;99.90;;;;;;5106809;28;19919;-64
2022/05/19 05:39:34;;;;;;;;;;;13.70;99.90;;;;;;5109299;28;19919;-64
2022/05/19 05:42:00;;;;;;;;;;;13.70;99.90;;;;;;5111314;28;20005;-64
2022/05/19 05:44:25;;;;;;;;;;;13.80;99.90;;;;;;5101870;28;19922;-64
2022/05/19 05:46:51;;;;;;;;;;;13.80;99.90;;;;;;5092449;28;19995;-64
2022/05/19 05:49:18;;;;;;;;;;;13.90;99.90;;;;;;5082498;28;19912;-64
2022/05/19 05:51:44;;;;;;;;;;;14.00;99.90;;;;;;5110878;28;20564;-64
2022/05/19 05:54:10;;;;;;;;;;;14.00;99.90;;;;;;5104477;28;20023;-65
2022/05/19 05:56:36;;;;;;;;;;;14.00;99.90;;;;;;5099539;28;20208;-64
2022/05/19 05:59:01;;;;;;;;;;;14.10;99.90;;;;;;5097194;28;20015;-65
2022/05/19 06:01:27;;;;;;;;;;;14.30;99.90;;;;;;5105824;28;19920;-65
2022/05/19 06:03:52;;;;;;;;;;;14.30;99.90;;;;;;5105913;28;20024;-65
2022/05/19 06:06:18;;;;;;;;;;;14.30;99.90;;;;;;5100055;28;19912;-65
2022/05/19 06:08:43;;;;;;;;;;;14.40;99.90;;;;;;5088533;28;20019;-64
2022/05/19 06:11:09;;;;;;;;;;;14.40;99.90;;;;;;5107832;28;20324;-65
2022/05/19 06:13:35;;;;;;;;;;;14.40;99.90;;;;;;5094203;28;19919;-65
2022/05/19 06:16:01;;;;;;;;;;;14.50;99.90;;;;;;5106031;28;19911;-64
2022/05/19 06:18:26;;;;;;;;;;;14.60;99.90;;;;;;5092281;28;19915;-64
2022/05/19 06:20:52;;;;;;;;;;;14.60;99.90;;;;;;5092095;28;19912;-65
2022/05/19 06:23:18;;;;;;;;;;;14.60;99.90;;;;;;5109980;28;19920;-64
2022/05/19 06:25:43;;;;;;;;;;;14.80;99.90;;;;;;5101593;28;19912;-64
2022/05/19 06:28:09;;;;;;;;;;;14.90;99.90;;;;;;5108181;27;19965;-64
2022/05/19 06:30:35;;;;;;;;;;;15.00;99.90;;;;;;5100776;28;20693;-64
2022/05/19 06:33:00;;;;;;;;;;;14.90;99.90;;;;;;5098204;28;19954;-64
2022/05/19 06:35:27;;;;;;;;;;;14.80;99.90;;;;;;5102733;28;19916;-65
2022/05/19 06:37:54;;;;;;;;;;;14.80;99.90;;;;;;5098257;28;19938;-65
2022/05/19 06:40:19;;;;;;;;;;;14.90;99.90;;;;;;5101418;28;19995;-65
2022/05/19 06:42:45;;;;;;;;;;;15.00;99.90;;;;;;5104499;28;20051;-65
2022/05/19 06:45:12;;;;;;;;;;;14.90;99.90;;;;;;5104514;28;20010;-64
2022/05/19 06:47:38;;;;;;;;;;;15.00;99.90;;;;;;5096215;28;19977;-65
2022/05/19 06:50:04;;;;;;;;;;;15.10;99.90;;;;;;5103585;28;20223;-64
2022/05/19 06:52:31;;;;;;;;;;;15.30;99.90;;;;;;5079607;28;19960;-64
2022/05/19 06:54:59;;;;;;;;;;;15.50;99.90;;;;;;5097993;27;20015;-64
2022/05/19 06:57:25;;;;;;;;;;;15.40;99.90;;;;;;5104575;28;19919;-65
2022/05/19 06:59:51;;;;;;;;;;;15.20;99.90;;;;;;5101188;28;19923;-65
2022/05/19 07:02:18;;;;;;;;;;;15.20;99.90;;;;;;5101952;28;19912;-65
2022/05/19 07:04:46;;;;;;;;;;;15.30;99.90;;;;;;5086143;28;19918;-65
2022/05/19 07:07:12;;;;;;;;;;;15.50;99.90;;;;;;5100197;28;19916;-65
2022/05/19 07:09:38;;;;;;;;;;;15.70;99.90;;;;;;5103543;28;19934;-65
2022/05/19 07:12:05;;;;;;;;;;;15.50;99.90;;;;;;5097807;28;20406;-65
2022/05/19 07:14:31;;;;;;;;;;;15.60;99.90;;;;;;5098829;28;19920;-65
2022/05/19 07:16:57;;;;;;;;;;;15.70;99.90;;;;;;5080656;28;20006;-65
2022/05/19 07:22:08;;;;;;;;;;;15.90;99.90;;;;;;5100420;28;19919;-65
2022/05/19 07:24:34;;;;;;;;;;;15.80;99.90;;;;;;5100626;28;19943;-64
2022/05/19 07:26:59;;;;;;;;;;;15.80;99.90;;;;;;5102692;28;19978;-63
2022/05/19 07:29:25;;;;;;;;;;;15.80;99.90;;;;;;5084256;28;19943;-65
2022/05/19 07:31:52;;;;;;;;;;;15.90;99.90;;;;;;5104612;28;20260;-65
2022/05/19 07:34:19;;;;;;;;;;;16.10;99.90;;;;;;5082850;28;20325;-65
2022/05/19 07:36:44;;;;;;;;;;;16.10;99.90;;;;;;5100703;28;20010;-63
2022/05/19 07:39:11;;;;;;;;;;;15.90;99.90;;;;;;5096566;28;20425;-65
2022/05/19 07:41:37;;;;;;;;;;;15.70;99.90;;;;;;5097759;28;20314;-64
2022/05/19 07:44:03;;;;;;;;;;;15.60;99.90;;;;;;5102487;28;19920;-65
2022/05/19 07:46:29;;;;;;;;;;;15.70;99.90;;;;;;5101443;28;19919;-64
2022/05/19 07:48:56;;;;;;;;;;;16.00;99.90;;;;;;5096842;28;19918;-65
2022/05/19 07:51:26;;;;;;;;;;;16.20;99.90;;;;;;5098717;28;19958;-66
2022/05/19 07:53:52;;;;;;;;;;;16.50;99.90;;;;;;5103884;28;20364;-64
2022/05/19 07:56:18;;;;;;;;;;;16.60;99.90;;;;;;5073484;28;20355;-66
2022/05/19 07:58:44;;;;;;;;;;;16.30;99.90;;;;;;5093682;28;20003;-66
2022/05/19 08:01:09;;;;;;;;;;;16.20;99.90;;;;;;5099328;28;19962;-65
2022/05/19 08:03:35;;;;;;;;;;;16.00;99.90;;;;;;5108261;28;19951;-65
2022/05/19 08:06:00;;;;;;;;;;;15.90;99.90;;;;;;5097752;28;19916;-65
2022/05/19 08:08:26;;;;;;;;;;;15.80;99.90;;;;;;5108382;28;19922;-65
2022/05/19 08:10:57;;;;;;;;;;;15.70;99.90;;;;;;5106677;28;19972;-64
2022/05/19 08:16:07;;;;;;;;;;;15.70;99.90;;;;;;5091682;28;19923;-65
2022/05/19 08:18:35;;;;;;;;;;;15.80;99.90;;;;;;5102127;28;19911;-66
2022/05/19 08:21:03;;;;;;;;;;;15.80;99.90;;;;;;5086186;28;20392;-64
2022/05/19 08:23:30;;;;;;;;;;;15.90;99.90;;;;;;5109380;28;20373;-66
2022/05/19 08:25:55;;;;;;;;;;;16.00;99.90;;;;;;5086452;28;19954;-65
2022/05/19 08:28:21;;;;;;;;;;;16.10;99.90;;;;;;5105055;28;20329;-66
2022/05/19 08:30:48;;;;;;;;;;;16.40;99.90;;;;;;5106292;28;19927;-68
2022/05/19 08:33:15;;;;;;;;;;;16.30;99.90;;;;;;5083542;28;19958;-64
2022/05/19 08:35:41;;;;;;;;;;;16.30;99.90;;;;;;5109236;28;19912;-65
2022/05/19 08:38:06;;;;;;;;;;;16.30;99.90;;;;;;5109558;28;20016;-65
2022/05/19 08:40:34;;;;;;;;;;;16.30;99.90;;;;;;5108321;28;19937;-66
2022/05/19 08:43:00;;;;;;;;;;;16.20;99.90;;;;;;5104925;28;19949;-66
2022/05/19 08:45:31;;;;;;;;;;;16.30;99.90;;;;;;5110391;28;19980;-66
2022/05/19 08:48:01;;;;;;;;;;;16.40;99.90;;;;;;5086449;28;19911;-66
2022/05/19 08:50:36;;;;;;;;;;;16.40;99.90;;;;;;5105530;28;19928;-64
2022/05/19 08:53:02;;;;;;;;;;;16.50;99.90;;;;;;5085605;28;19919;-66
2022/05/19 08:55:28;;;;;;;;;;;16.80;99.90;;;;;;5098356;28;20322;-66
2022/05/19 08:58:12;;;;;;;;;;;17.00;99.90;;;;;;5103972;28;19919;-66
2022/05/19 09:00:40;;;;;;;;;;;17.30;99.90;;;;;;5102417;28;20353;-65
2022/05/19 09:03:32;;;;;;;;;;;17.30;99.90;;;;;;5109628;28;19911;-65
2022/05/19 09:06:04;;;;;;;;;;;17.30;99.90;;;;;;5107536;28;19972;-64
2022/05/19 09:08:32;;;;;;;;;;;17.00;99.90;;;;;;5106446;28;19962;-66
2022/05/19 09:11:00;;;;;;;;;;;16.90;99.90;;;;;;5085088;28;20291;-65
2022/05/19 09:13:35;;;;;;;;;;;16.70;99.90;;;;;;5102003;28;19912;-65
2022/05/19 09:16:11;;;;;;;;;;;16.50;99.90;;;;;;5104560;28;19946;-65
2022/05/19 09:18:38;;;;;;;;;;;16.70;99.90;;;;;;5100743;28;19958;-65
2022/05/19 09:21:05;;;;;;;;;;;16.70;99.90;;;;;;5106171;28;19918;-66
2022/05/19 09:23:32;;;;;;;;;;;16.60;99.90;;;;;;5091798;28;19949;-66
2022/05/19 09:26:14;;;;;;;;;;;16.70;99.90;;;;;;5103772;28;19947;-65
2022/05/19 09:28:39;;;;;;;;;;;16.80;99.90;;;;;;5081105;28;19916;-65
2022/05/19 09:31:05;;;;;;;;;;;17.00;99.90;;;;;;5105306;28;19927;-65
2022/05/19 09:33:35;;;;;;;;;;;17.00;99.90;;;;;;5103310;28;19912;-65
2022/05/19 09:36:06;;;;;;;;;;;17.00;99.90;;;;;;5103758;28;19965;-66
2022/05/19 09:38:33;;;;;;;;;;;16.90;99.90;;;;;;5100556;28;19924;-66
2022/05/19 09:41:07;;;;;;;;;;;16.80;99.90;;;;;;5098517;28;20301;-65
2022/05/19 09:43:36;;;;;;;;;;;16.80;99.90;;;;;;5104063;28;20235;-65
2022/05/19 09:46:16;;;;;;;;;;;16.80;99.90;;;;;;5103324;28;19912;-64
2022/05/19 09:49:01;;;;;;;;;;;16.80;99.90;;;;;;5105561;28;20166;-65
2022/05/19 09:51:30;;;;;;;;;;;16.90;99.90;;;;;;5103029;28;20266;-66
2022/05/19 09:53:59;;;;;;;;;;;17.00;99.90;;;;;;5083989;28;19934;-65
2022/05/19 09:56:32;;;;;;;;;;;17.00;99.90;;;;;;5083401;28;19951;-65
2022/05/19 09:59:07;;;;;;;;;;;17.20;99.90;;;;;;5092563;28;19919;-65
2022/05/19 10:01:40;;;;;;;;;;;17.20;99.90;;;;;;5092869;28;19912;-66
2022/05/19 10:04:07;;;;;;;;;;;17.20;99.90;;;;;;5098205;28;19923;-66
2022/05/19 10:06:33;;;;;;;;;;;17.40;99.90;;;;;;5089557;28;20258;-66
2022/05/19 10:09:19;;;;;;;;;;;17.50;99.90;;;;;;5091457;28;19937;-67
2022/05/19 10:11:50;;;;;;;;;;;17.60;99.90;;;;;;5101758;28;19919;-65
2022/05/19 10:14:17;;;;;;;;;;;17.70;99.90;;;;;;5085774;28;19916;-66
2022/05/19 10:16:45;;;;;;;;;;;18.00;99.90;;;;;;5101119;28;19912;-66
2022/05/19 10:19:30;;;;;;;;;;;18.20;99.90;;;;;;5085858;28;19992;-65
2022/05/19 10:22:13;;;;;;;;;;;18.10;99.90;;;;;;5102545;28;20002;-65
2022/05/19 10:24:51;;;;;;;;;;;17.90;99.90;;;;;;5084027;28;19988;-66
2022/05/19 10:33:24;;;;;;;;;;;18.50;99.90;;;;;;5099963;28;19972;-65
2022/05/19 10:35:55;;;;;;;;;;;18.70;99.90;;;;;;5111241;28;20315;-64
2022/05/19 10:38:24;;;;;;;;;;;18.60;99.90;;;;;;5100619;28;19911;-65
2022/05/19 10:41:05;;;;;;;;;;;18.50;99.90;;;;;;5085729;28;19912;-66
2022/05/19 10:43:39;;;;;;;;;;;18.20;99.90;;;;;;5098404;28;19927;-66
2022/05/19 10:46:06;;;;;;;;;;;18.00;99.90;;;;;;5113008;28;19957;-64
2022/05/19 10:48:41;;;;;;;;;;;18.20;99.90;;;;;;5097774;28;19915;-65
2022/05/19 10:51:14;;;;;;;;;;;18.40;99.90;;;;;;5108072;28;19920;-65
2022/05/19 10:53:58;;;;;;;;;;;18.40;99.90;;;;;;5099703;28;19912;-67
2022/05/19 10:56:40;;;;;;;;;;;18.20;99.90;;;;;;5107989;28;20085;-65
2022/05/19 10:59:09;;;;;;;;;;;18.20;99.90;;;;;;5102656;28;19912;-65
2022/05/19 11:01:42;;;;;;;;;;;18.20;99.90;;;;;;5112617;28;19916;-66
2022/05/19 11:04:07;;;;;;;;;;;18.10;99.90;;;;;;5111701;28;19931;-65
2022/05/19 11:06:44;;;;;;;;;;;18.00;99.90;;;;;;5099789;28;19919;-66
2022/05/19 11:09:14;;;;;;;;;;;18.00;99.90;;;;;;5107402;28;19931;-66
2022/05/19 11:12:02;;;;;;;;;;;18.30;99.90;;;;;;5099562;28;19920;-66
2022/05/19 11:14:27;;;;;;;;;;;18.30;98.90;;;;;;5101251;28;19919;-67
2022/05/19 11:16:57;;;;;;;;;;;18.50;99.90;;;;;;5103608;28;20293;-65
2022/05/19 11:19:31;;;;;;;;;;;18.90;99.90;;;;;;5095474;28;20234;-67
2022/05/19 11:22:00;;;;;;;;;;;19.00;99.90;;;;;;5100118;28;19989;-67
2022/05/19 11:24:35;;;;;;;;;;;18.70;99.90;;;;;;5094700;28;19912;-65
2022/05/19 11:27:00;;;;;;;;;;;18.60;99.90;;;;;;5084560;28;20322;-66
2022/05/19 11:29:31;;;;;;;;;;;18.50;99.90;;;;;;5110072;28;19912;-67
2022/05/19 11:32:08;;;;;;;;;;;18.40;99.90;;;;;;5107254;28;19919;-67
2022/05/19 11:34:47;;;;;;;;;;;18.10;99.90;;;;;;5083660;28;20305;-65
2022/05/19 11:37:32;;;;;;;;;;;18.00;98.40;;;;;;5084478;28;19913;-66
2022/05/19 11:40:08;;;;;;;;;;;18.10;99.00;;;;;;5089176;28;19919;-66
2022/05/19 11:42:33;;;;;;;;;;;18.30;99.50;;;;;;5067188;28;20385;-64
2022/05/19 11:44:59;;;;;;;;;;;18.60;99.80;;;;;;5086128;28;19916;-67
2022/05/19 11:56:09;;;;;;;;;;;19.40;97.70;;;;;;5086238;28;19923;-65
2022/05/19 11:58:36;;;;;;;;;;;19.70;98.10;;;;;;5070518;28;19991;-65
2022/05/19 12:01:06;;;;;;;;;;;19.90;97.70;;;;;;5087989;28;20426;-66
2022/05/19 12:03:50;;;;;;;;;;;19.70;98.10;;;;;;5072205;28;19913;-67
2022/05/19 12:06:18;;;;;;;;;;;19.50;98.80;;;;;;5075267;28;20016;-66
2022/05/19 12:08:44;;;;;;;;;;;19.40;98.50;;;;;;5069708;28;20620;-66
2022/05/19 12:11:19;;;;;;;;;;;19.20;99.10;;;;;;5066714;28;20342;-66
2022/05/19 12:13:49;;;;;;;;;;;19.10;98.80;;;;;;5068716;28;19917;-66
2022/05/19 12:16:17;;;;;;;;;;;19.10;98.60;;;;;;5066839;28;19912;-65
2022/05/19 12:19:03;;;;;;;;;;;18.90;99.50;;;;;;5067146;28;19950;-66
2022/05/19 12:21:50;;;;;;;;;;;18.90;99.90;;;;;;5069516;28;19912;-67
2022/05/19 12:24:16;;;;;;;;;;;18.90;99.90;;;;;;5072262;28;20266;-66
2022/05/19 12:26:45;;;;;;;;;;;18.90;99.90;;;;;;5067612;28;19996;-66
2022/05/19 12:29:16;;;;;;;;;;;19.30;99.90;;;;;;5068169;28;20042;-65
2022/05/19 12:31:59;;;;;;;;;;;19.80;98.10;;;;;;5066054;28;19928;-66
2022/05/19 12:34:32;;;;;;;;;;;20.10;96.70;;;;;;5066786;28;20183;-66
2022/05/19 12:37:07;;;;;;;;;;;20.30;96.50;;;;;;5059020;28;19912;-66
2022/05/19 12:39:49;;;;;;;;;;;20.30;95.80;;;;;;5069937;28;20385;-66
2022/05/19 12:42:25;;;;;;;;;;;20.50;95.90;;;;;;5068617;28;19912;-66
2022/05/19 12:44:51;;;;;;;;;;;20.60;94.80;;;;;;5066964;28;19920;-66
2022/05/19 12:47:21;;;;;;;;;;;20.80;94.80;;;;;;5067768;28;19913;-66
2022/05/19 12:50:07;;;;;;;;;;;21.20;94.30;;;;;;5065138;28;19913;-66
2022/05/19 12:52:51;;;;;;;;;;;21.10;94.70;;;;;;5067287;28;20001;-68
2022/05/19 12:55:22;;;;;;;;;;;20.90;94.70;;;;;;5065674;28;19908;-66
2022/05/19 12:57:49;;;;;;;;;;;20.90;94.90;;;;;;5070281;28;19965;-67
2022/05/19 13:00:19;;;;;;;;;;;20.80;94.10;;;;;;5070938;28;19937;-66
2022/05/19 13:03:09;;;;;;;;;;;20.80;94.10;;;;;;5067228;28;20007;-66
2022/05/19 13:05:52;;;;;;;;;;;20.60;94.00;;;;;;5061088;28;19912;-66
2022/05/19 13:08:37;;;;;;;;;;;20.30;95.00;;;;;;5072850;28;19970;-67
2022/05/19 13:11:07;;;;;;;;;;;20.30;95.50;;;;;;5087050;28;19992;-65
2022/05/19 13:13:32;;;;;;;;;;;20.30;95.50;;;;;;5077991;28;19942;-66
2022/05/19 13:15:59;;;;;;;;;;;20.20;95.70;;;;;;5072035;28;19912;-64
2022/05/19 13:18:28;;;;;;;;;;;20.10;96.10;;;;;;5081782;28;19966;-65
2022/05/19 13:21:14;;;;;;;;;;;20.00;96.10;;;;;;5092170;28;19912;-66
2022/05/19 13:23:40;;;;;;;;;;;20.30;95.90;;;;;;5060086;28;20029;-66
2022/05/19 13:26:12;;;;;;;;;;;20.50;94.60;;;;;;5083570;28;19913;-68
2022/05/19 13:31:23;;;;;;;;;;;20.80;94.40;;;;;;5084342;28;19926;-65
2022/05/19 13:33:51;;;;;;;;;;;21.20;94.10;;;;;;5087106;28;19912;-65
2022/05/19 13:36:27;;;;;;;;;;;21.30;94.10;;;;;;5086784;28;19912;-66
2022/05/19 13:39:05;;;;;;;;;;;21.60;93.50;;;;;;5083070;28;19955;-66
2022/05/19 13:41:32;;;;;;;;;;;21.60;92.50;;;;;;5088432;28;19977;-67
2022/05/19 13:43:58;;;;;;;;;;;21.80;92.10;;;;;;5091913;28;20362;-66
2022/05/19 13:46:25;;;;;;;;;;;21.70;90.10;;;;;;5073500;28;19912;-66
2022/05/19 13:49:00;;;;;;;;;;;21.70;89.40;;;;;;5070998;28;19913;-65
2022/05/19 13:51:27;;;;;;;;;;;21.70;90.20;;;;;;5084753;28;19929;-67
2022/05/19 13:53:55;;;;;;;;;;;21.80;91.60;;;;;;5081080;28;19919;-67
2022/05/19 13:56:24;;;;;;;;;;;21.80;91.70;;;;;;5088239;28;19912;-68
2022/05/19 13:58:50;;;;;;;;;;;21.90;91.40;;;;;;5088635;28;19932;-66
2022/05/19 14:01:35;;;;;;;;;;;22.10;91.00;;;;;;5090156;28;19912;-67
2022/05/19 14:04:04;;;;;;;;;;;22.10;90.30;;;;;;5079450;28;20013;-65
2022/05/19 14:06:31;;;;;;;;;;;22.10;89.20;;;;;;5091416;28;19919;-66
2022/05/19 14:08:57;;;;;;;;;;;22.40;88.70;;;;;;5081893;28;20111;-68
2022/05/19 14:11:23;;;;;;;;;;;22.60;88.50;;;;;;5072189;28;20029;-71
2022/05/19 14:13:53;;;;;;;;;;;22.50;87.00;;;;;;5091761;28;19912;-70
2022/05/19 14:16:20;;;;;;;;;;;22.20;87.30;;;;;;5072378;28;20370;-70
2022/05/19 14:18:48;;;;;;;;;;;22.00;88.00;;;;;;5090147;28;19930;-71
2022/05/19 14:21:20;;;;;;;;;;;21.90;88.90;;;;;;5087837;28;19919;-71
2022/05/19 14:23:51;;;;;;;;;;;21.80;89.10;;;;;;5085962;28;19938;-70
2022/05/19 14:26:24;;;;;;;;;;;21.90;88.30;;;;;;5088029;28;20234;-70
2022/05/19 14:28:51;;;;;;;;;;;21.90;88.10;;;;;;5098613;28;19912;-71
2022/05/19 14:31:18;;;;;;;;;;;21.90;90.00;;;;;;5090642;28;19919;-71
2022/05/19 14:33:58;;;;;;;;;;;21.70;88.00;;;;;;5088688;28;19919;-69
2022/05/19 14:36:26;;;;;;;;;;;21.70;88.10;;;;;;5065454;28;19920;-70
2022/05/19 14:38:54;;;;;;;;;;;21.70;89.30;;;;;;5088817;28;19920;-70
2022/05/19 14:44:10;;;;;;;;;;;21.70;90.30;;;;;;5074414;28;21137;-70
2022/05/19 14:46:41;;;;;;;;;;;22.10;90.00;;;;;;5087590;28;19912;-70
2022/05/19 14:49:08;;;;;;;;;;;22.50;88.30;;;;;;5092997;28;20373;-70
2022/05/19 14:51:38;;;;;;;;;;;23.10;86.30;;;;;;5073657;28;20370;-70
2022/05/19 14:54:05;;;;;;;;;;;23.40;85.50;;;;;;5089254;28;19912;-70